In Rescue
 
Open Full Screen Window  High Contrast Mode
Wind Gusting 00 knots
04
September 19, 2019 5:33 PM EDT
Weather Information
Wind Direction
  180 °
Wind Speed
  04 kt (5 mph)
Wind Gust
  00 kt (0 mph)
Altimeter
30.07 in
Visibility
10 SM
Temperature
26° C
79° F
Dewpoint
09° C
48° F
Humidity
34%
Sky Condition
Clear
VFR

METAR KFFX 192133Z AUTO 18004KT 10SM CLR 26/09 A3007 RMK AO2 T02610093

FAA Disclaimer: The data displayed is for advisory purposes only and is not to be used for flight planning or operations.